sensor_id;sensor_type;location;lat;lon;timestamp;pressure;altitude;pressure_sealevel;temperature;humidity
63819;BME280;49970;54.976;73.248;2023-04-09T00:02:27;101144.16;;;-1.63;67.50
63819;BME280;49970;54.976;73.248;2023-04-09T00:04:54;101140.72;;;-1.64;67.54
63819;BME280;49970;54.976;73.248;2023-04-09T00:07:20;101135.56;;;-1.67;67.58
63819;BME280;49970;54.976;73.248;2023-04-09T00:09:46;101150.28;;;-1.66;67.78
63819;BME280;49970;54.976;73.248;2023-04-09T00:12:12;101155.44;;;-1.67;68.02
63819;BME280;49970;54.976;73.248;2023-04-09T00:14:39;101158.94;;;-1.68;67.90
63819;BME280;49970;54.976;73.248;2023-04-09T00:17:05;101159.81;;;-1.69;67.91
63819;BME280;49970;54.976;73.248;2023-04-09T00:19:31;101158.06;;;-1.69;68.07
63819;BME280;49970;54.976;73.248;2023-04-09T00:21:58;101165.84;;;-1.67;68.22
63819;BME280;49970;54.976;73.248;2023-04-09T00:24:24;101165.84;;;-1.67;68.30
63819;BME280;49970;54.976;73.248;2023-04-09T00:27:00;101168.44;;;-1.66;68.02
63819;BME280;49970;54.976;73.248;2023-04-09T00:29:27;101172.75;;;-1.65;68.30
63819;BME280;49970;54.976;73.248;2023-04-09T00:31:53;101167.56;;;-1.65;68.29
63819;BME280;49970;54.976;73.248;2023-04-09T00:34:19;101172.75;;;-1.65;68.51
63819;BME280;49970;54.976;73.248;2023-04-09T00:36:45;101174.53;;;-1.67;68.38
63819;BME280;49970;54.976;73.248;2023-04-09T00:39:12;101172.75;;;-1.65;68.59
63819;BME280;49970;54.976;73.248;2023-04-09T00:41:38;101180.53;;;-1.62;68.30
63819;BME280;49970;54.976;73.248;2023-04-09T00:44:15;101187.44;;;-1.59;68.47
63819;BME280;49970;54.976;73.248;2023-04-09T00:46:46;101185.69;;;-1.56;68.57
63819;BME280;49970;54.976;73.248;2023-04-09T00:49:12;101190.03;;;-1.55;68.31
63819;BME280;49970;54.976;73.248;2023-04-09T00:51:49;101195.22;;;-1.55;68.39
63819;BME280;49970;54.976;73.248;2023-04-09T00:54:15;101191.72;;;-1.52;68.58
63819;BME280;49970;54.976;73.248;2023-04-09T00:56:42;101198.59;;;-1.46;68.34
63819;BME280;49970;54.976;73.248;2023-04-09T00:59:09;101196.00;;;-1.45;68.49
63819;BME280;49970;54.976;73.248;2023-04-09T01:01:35;101194.25;;;-1.41;68.35
63819;BME280;49970;54.976;73.248;2023-04-09T01:04:01;101207.22;;;-1.40;68.07
63819;BME280;49970;54.976;73.248;2023-04-09T01:14:36;101207.09;;;-1.26;68.54
63819;BME280;49970;54.976;73.248;2023-04-09T01:17:39;101217.50;;;-1.24;68.17
63819;BME280;49970;54.976;73.248;2023-04-09T01:20:12;101216.56;;;-1.19;68.09
63819;BME280;49970;54.976;73.248;2023-04-09T01:23:06;101228.69;;;-1.15;68.26
63819;BME280;49970;54.976;73.248;2023-04-09T01:25:52;101220.88;;;-1.12;67.90
63819;BME280;49970;54.976;73.248;2023-04-09T01:28:26;101224.28;;;-1.07;67.92
63819;BME280;49970;54.976;73.248;2023-04-09T01:30:59;101233.75;;;-1.01;67.71
63819;BME280;49970;54.976;73.248;2023-04-09T01:33:33;101232.84;;;-0.97;67.53
63819;BME280;49970;54.976;73.248;2023-04-09T01:36:05;101247.31;;;-0.68;67.46
63819;BME280;49970;54.976;73.248;2023-04-09T01:38:43;101247.66;;;-0.19;66.92
63819;BME280;49970;54.976;73.248;2023-04-09T01:41:17;101252.19;;;0.33;66.05
63819;BME280;49970;54.976;73.248;2023-04-09T01:43:44;101239.44;;;0.73;64.89
63819;BME280;49970;54.976;73.248;2023-04-09T01:46:11;101251.09;;;1.05;64.10
63819;BME280;49970;54.976;73.248;2023-04-09T01:48:38;101261.75;;;0.93;64.45
63819;BME280;49970;54.976;73.248;2023-04-09T01:51:05;101254.06;;;0.84;63.93
63819;BME280;49970;54.976;73.248;2023-04-09T01:53:31;101254.72;;;0.96;63.76
63819;BME280;49970;54.976;73.248;2023-04-09T01:56:01;101257.63;;;1.29;63.20
63819;BME280;49970;54.976;73.248;2023-04-09T01:58:28;101262.53;;;1.46;63.17
63819;BME280;49970;54.976;73.248;2023-04-09T02:01:00;101269.47;;;1.48;62.57
63819;BME280;49970;54.976;73.248;2023-04-09T02:03:36;101262.59;;;1.44;62.94
63819;BME280;49970;54.976;73.248;2023-04-09T02:06:08;101272.84;;;1.54;62.79
63819;BME280;49970;54.976;73.248;2023-04-09T02:08:47;101272.97;;;1.47;63.20
63819;BME280;49970;54.976;73.248;2023-04-09T02:11:16;101270.53;;;1.37;62.69
63819;BME280;49970;54.976;73.248;2023-04-09T02:13:48;101273.44;;;1.21;62.59
63819;BME280;49970;54.976;73.248;2023-04-09T02:16:24;101278.00;;;1.07;62.15
63819;BME280;49970;54.976;73.248;2023-04-09T02:18:54;101284.22;;;1.00;62.34
63819;BME280;49970;54.976;73.248;2023-04-09T02:21:27;101292.88;;;1.02;62.66
63819;BME280;49970;54.976;73.248;2023-04-09T02:23:54;101291.19;;;1.01;62.51
63819;BME280;49970;54.976;73.248;2023-04-09T02:26:23;101284.25;;;0.98;62.04
63819;BME280;49970;54.976;73.248;2023-04-09T02:28:50;101293.72;;;1.06;61.76
63819;BME280;49970;54.976;73.248;2023-04-09T02:31:16;101295.38;;;1.10;61.30
63819;BME280;49970;54.976;73.248;2023-04-09T02:33:43;101296.19;;;1.12;61.56
63819;BME280;49970;54.976;73.248;2023-04-09T02:36:19;101284.81;;;1.16;61.24
63819;BME280;49970;54.976;73.248;2023-04-09T02:38:45;101297.72;;;1.27;61.64
63819;BME280;49970;54.976;73.248;2023-04-09T02:41:17;101295.81;;;1.35;61.61
63819;BME280;49970;54.976;73.248;2023-04-09T02:43:43;101305.25;;;1.42;61.37
63819;BME280;49970;54.976;73.248;2023-04-09T02:46:09;101316.47;;;1.48;61.20
63819;BME280;49970;54.976;73.248;2023-04-09T02:48:36;101309.34;;;1.57;60.93
63819;BME280;49970;54.976;73.248;2023-04-09T02:51:04;101310.94;;;1.65;61.20
63819;BME280;49970;54.976;73.248;2023-04-09T02:53:51;101317.69;;;1.75;60.79
63819;BME280;49970;54.976;73.248;2023-04-09T02:57:42;101313.16;;;1.87;60.60
63819;BME280;49970;54.976;73.248;2023-04-09T03:05:22;101320.50;;;2.11;59.60
63819;BME280;49970;54.976;73.248;2023-04-09T03:09:13;101329.19;;;2.13;59.80
63819;BME280;49970;54.976;73.248;2023-04-09T03:13:04;101330.31;;;2.43;59.60
63819;BME280;49970;54.976;73.248;2023-04-09T03:16:55;101335.00;;;2.68;59.63
63819;BME280;49970;54.976;73.248;2023-04-09T03:20:51;101333.25;;;2.68;59.48
63819;BME280;49970;54.976;73.248;2023-04-09T03:24:49;101334.59;;;2.86;59.23
63819;BME280;49970;54.976;73.248;2023-04-09T03:27:16;101343.00;;;2.99;59.21
63819;BME280;49970;54.976;73.248;2023-04-09T03:29:48;101342.22;;;2.97;58.57
63819;BME280;49970;54.976;73.248;2023-04-09T03:32:14;101343.94;;;2.96;58.91
63819;BME280;49970;54.976;73.248;2023-04-09T03:34:50;101341.75;;;3.15;59.03
63819;BME280;49970;54.976;73.248;2023-04-09T03:37:20;101352.06;;;3.23;58.63
63819;BME280;49970;54.976;73.248;2023-04-09T03:39:46;101358.09;;;3.25;58.21
63819;BME280;49970;54.976;73.248;2023-04-09T03:42:12;101360.41;;;3.37;58.75
63819;BME280;49970;54.976;73.248;2023-04-09T03:44:44;101358.41;;;3.48;58.27
63819;BME280;49970;54.976;73.248;2023-04-09T03:47:15;101367.78;;;3.57;58.14
63819;BME280;49970;54.976;73.248;2023-04-09T03:49:41;101364.03;;;3.67;58.49
63819;BME280;49970;54.976;73.248;2023-04-09T03:52:17;101372.53;;;3.77;57.81
63819;BME280;49970;54.976;73.248;2023-04-09T03:54:52;101372.09;;;3.94;58.01
63819;BME280;49970;54.976;73.248;2023-04-09T03:57:22;101380.47;;;4.07;57.45
63819;BME280;49970;54.976;73.248;2023-04-09T03:59:51;101377.78;;;4.10;57.97
63819;BME280;49970;54.976;73.248;2023-04-09T04:02:20;101388.81;;;4.21;57.25
63819;BME280;49970;54.976;73.248;2023-04-09T04:04:56;101381.72;;;4.24;56.85
63819;BME280;49970;54.976;73.248;2023-04-09T04:07:25;101395.75;;;4.23;56.88
63819;BME280;49970;54.976;73.248;2023-04-09T04:10:05;101378.97;;;4.29;56.90
63819;BME280;49970;54.976;73.248;2023-04-09T04:12:32;101386.38;;;4.46;57.52
63819;BME280;49970;54.976;73.248;2023-04-09T04:15:12;101387.00;;;4.56;57.74
63819;BME280;49970;54.976;73.248;2023-04-09T04:17:49;101393.66;;;4.66;57.36
63819;BME280;49970;54.976;73.248;2023-04-09T04:20:36;101392.34;;;4.81;57.41
63819;BME280;49970;54.976;73.248;2023-04-09T04:23:07;101401.69;;;4.91;57.09
63819;BME280;49970;54.976;73.248;2023-04-09T04:25:47;101402.38;;;4.96;57.04
63819;BME280;49970;54.976;73.248;2023-04-09T04:28:21;101400.63;;;4.96;56.68
63819;BME280;49970;54.976;73.248;2023-04-09T04:30:47;101409.28;;;5.00;56.76
63819;BME280;49970;54.976;73.248;2023-04-09T04:33:23;101409.22;;;5.02;56.60
63819;BME280;49970;54.976;73.248;2023-04-09T04:36:12;101407.78;;;4.91;57.21
63819;BME280;49970;54.976;73.248;2023-04-09T04:38:43;101412.81;;;4.99;57.69
63819;BME280;49970;54.976;73.248;2023-04-09T04:41:16;101406.56;;;5.03;57.35
63819;BME280;49970;54.976;73.248;2023-04-09T04:44:00;101423.03;;;5.08;56.71
63819;BME280;49970;54.976;73.248;2023-04-09T04:46:26;101427.22;;;5.14;57.75
63819;BME280;49970;54.976;73.248;2023-04-09T04:48:52;101420.72;;;5.25;57.03
63819;BME280;49970;54.976;73.248;2023-04-09T04:51:21;101413.38;;;5.37;57.54
63819;BME280;49970;54.976;73.248;2023-04-09T04:53:59;101424.56;;;5.43;57.42
63819;BME280;49970;54.976;73.248;2023-04-09T04:56:26;101424.28;;;5.53;57.14
63819;BME280;49970;54.976;73.248;2023-04-09T04:59:01;101433.03;;;5.52;56.69
63819;BME280;49970;54.976;73.248;2023-04-09T05:01:34;101428.09;;;5.42;57.26
63819;BME280;49970;54.976;73.248;2023-04-09T05:04:01;101427.13;;;5.45;57.13
63819;BME280;49970;54.976;73.248;2023-04-09T05:06:33;101425.88;;;5.57;57.66
63819;BME280;49970;54.976;73.248;2023-04-09T05:09:04;101436.16;;;5.64;57.20
63819;BME280;49970;54.976;73.248;2023-04-09T05:11:44;101432.94;;;5.55;56.90
63819;BME280;49970;54.976;73.248;2023-04-09T05:14:15;101440.84;;;5.55;57.01
63819;BME280;49970;54.976;73.248;2023-04-09T05:16:42;101443.28;;;5.61;56.89
63819;BME280;49970;54.976;73.248;2023-04-09T05:19:08;101437.50;;;5.76;57.53
63819;BME280;49970;54.976;73.248;2023-04-09T05:21:34;101447.75;;;5.85;57.26
63819;BME280;49970;54.976;73.248;2023-04-09T05:24:01;101453.94;;;5.83;57.15
63819;BME280;49970;54.976;73.248;2023-04-09T05:26:31;101448.84;;;5.78;57.42
63819;BME280;49970;54.976;73.248;2023-04-09T05:28:58;101455.81;;;5.79;57.48
63819;BME280;49970;54.976;73.248;2023-04-09T05:31:25;101450.63;;;5.78;57.54
63819;BME280;49970;54.976;73.248;2023-04-09T05:33:55;101460.88;;;5.85;57.82
63819;BME280;49970;54.976;73.248;2023-04-09T05:36:37;101457.91;;;5.96;57.86
63819;BME280;49970;54.976;73.248;2023-04-09T05:39:07;101455.66;;;6.10;57.72
63819;BME280;49970;54.976;73.248;2023-04-09T05:41:33;101459.03;;;6.14;57.24
63819;BME280;49970;54.976;73.248;2023-04-09T05:44:24;101454.19;;;6.02;57.56
63819;BME280;49970;54.976;73.248;2023-04-09T05:47:03;101460.19;;;6.07;58.00
63819;BME280;49970;54.976;73.248;2023-04-09T05:49:38;101456.25;;;6.18;57.19
63819;BME280;49970;54.976;73.248;2023-04-09T05:52:09;101457.06;;;6.20;57.09
63819;BME280;49970;54.976;73.248;2023-04-09T05:54:35;101451.00;;;6.18;57.03
63819;BME280;49970;54.976;73.248;2023-04-09T05:57:03;101454.34;;;6.23;57.16
63819;BME280;49970;54.976;73.248;2023-04-09T05:59:33;101454.03;;;6.33;56.96
63819;BME280;49970;54.976;73.248;2023-04-09T06:02:00;101458.03;;;6.43;57.05
63819;BME280;49970;54.976;73.248;2023-04-09T06:04:30;101461.22;;;6.53;57.25
63819;BME280;49970;54.976;73.248;2023-04-09T06:07:07;101456.38;;;6.65;57.31
63819;BME280;49970;54.976;73.248;2023-04-09T06:09:40;101454.25;;;6.75;57.15
63819;BME280;49970;54.976;73.248;2023-04-09T06:12:07;101458.13;;;6.88;57.23
63819;BME280;49970;54.976;73.248;2023-04-09T06:14:33;101461.13;;;7.03;57.05
63819;BME280;49970;54.976;73.248;2023-04-09T06:16:59;101459.28;;;7.05;56.29
63819;BME280;49970;54.976;73.248;2023-04-09T06:19:26;101443.94;;;6.92;56.20
63819;BME280;49970;54.976;73.248;2023-04-09T06:21:53;101458.13;;;6.88;57.00
63819;BME280;49970;54.976;73.248;2023-04-09T06:24:20;101458.50;;;7.03;56.64
63819;BME280;49970;54.976;73.248;2023-04-09T06:26:46;101450.75;;;6.98;55.67
63819;BME280;49970;54.976;73.248;2023-04-09T06:29:12;101449.16;;;6.94;55.83
63819;BME280;49970;54.976;73.248;2023-04-09T06:31:38;101450.88;;;6.95;56.19
63819;BME280;49970;54.976;73.248;2023-04-09T06:34:10;101449.31;;;7.13;56.55
63819;BME280;49970;54.976;73.248;2023-04-09T06:36:36;101449.75;;;7.24;56.17
63819;BME280;49970;54.976;73.248;2023-04-09T06:39:02;101452.13;;;7.30;55.76
63819;BME280;49970;54.976;73.248;2023-04-09T06:41:29;101450.25;;;7.34;55.31
63819;BME280;49970;54.976;73.248;2023-04-09T06:43:55;101439.25;;;7.22;55.65
63819;BME280;49970;54.976;73.248;2023-04-09T06:46:41;101444.16;;;7.10;55.40
63819;BME280;49970;54.976;73.248;2023-04-09T06:50:32;101448.06;;;6.99;54.88
63819;BME280;49970;54.976;73.248;2023-04-09T06:54:22;101441.75;;;7.04;55.73
63819;BME280;49970;54.976;73.248;2023-04-09T06:57:54;101441.03;;;7.22;55.69
63819;BME280;49970;54.976;73.248;2023-04-09T07:00:20;101440.84;;;7.27;55.39
63819;BME280;49970;54.976;73.248;2023-04-09T07:02:48;101447.06;;;7.26;55.55
63819;BME280;49970;54.976;73.248;2023-04-09T07:05:14;101446.84;;;7.32;54.91
63819;BME280;49970;54.976;73.248;2023-04-09T07:07:40;101447.31;;;7.41;55.20
63819;BME280;49970;54.976;73.248;2023-04-09T07:10:10;101450.31;;;7.54;55.14
63819;BME280;49970;54.976;73.248;2023-04-09T07:12:36;101440.97;;;7.67;55.17
63819;BME280;49970;54.976;73.248;2023-04-09T07:15:04;101436.38;;;7.72;54.51
63819;BME280;49970;54.976;73.248;2023-04-09T07:17:31;101447.72;;;7.74;54.94
63819;BME280;49970;54.976;73.248;2023-04-09T07:19:58;101444.09;;;7.77;54.40
63819;BME280;49970;54.976;73.248;2023-04-09T07:22:27;101438.09;;;7.73;54.26
63819;BME280;49970;54.976;73.248;2023-04-09T07:24:53;101434.97;;;7.64;54.50
63819;BME280;49970;54.976;73.248;2023-04-09T07:27:26;101440.63;;;7.55;54.40
63819;BME280;49970;54.976;73.248;2023-04-09T07:29:59;101436.31;;;7.52;54.61
63819;BME280;49970;54.976;73.248;2023-04-09T07:32:26;101434.69;;;7.49;54.87
63819;BME280;49970;54.976;73.248;2023-04-09T07:34:55;101436.28;;;7.54;54.85
63819;BME280;49970;54.976;73.248;2023-04-09T07:37:22;101434.13;;;7.63;55.05
63819;BME280;49970;54.976;73.248;2023-04-09T07:39:49;101434.59;;;7.73;55.11
63819;BME280;49970;54.976;73.248;2023-04-09T07:42:16;101436.91;;;7.81;54.85
63819;BME280;49970;54.976;73.248;2023-04-09T07:44:42;101432.75;;;7.75;55.70
63819;BME280;49970;54.976;73.248;2023-04-09T07:47:08;101441.53;;;7.76;54.90
63819;BME280;49970;54.976;73.248;2023-04-09T07:49:36;101447.66;;;7.76;54.22
63819;BME280;49970;54.976;73.248;2023-04-09T07:52:05;101435.50;;;7.72;54.93
63819;BME280;49970;54.976;73.248;2023-04-09T07:54:32;101428.66;;;7.68;54.42
63819;BME280;49970;54.976;73.248;2023-04-09T07:56:59;101429.78;;;7.62;54.20
63819;BME280;49970;54.976;73.248;2023-04-09T07:59:28;101431.00;;;7.54;54.43
63819;BME280;49970;54.976;73.248;2023-04-09T08:01:56;101437.38;;;7.48;55.06
63819;BME280;49970;54.976;73.248;2023-04-09T08:04:22;101434.91;;;7.43;54.09
63819;BME280;49970;54.976;73.248;2023-04-09T08:06:58;101431.91;;;7.31;53.84
63819;BME280;49970;54.976;73.248;2023-04-09T08:09:25;101423.34;;;7.26;54.77
63819;BME280;49970;54.976;73.248;2023-04-09T08:11:51;101431.25;;;7.26;54.12
63819;BME280;49970;54.976;73.248;2023-04-09T08:14:18;101429.56;;;7.23;54.16
63819;BME280;49970;54.976;73.248;2023-04-09T08:16:45;101432.56;;;7.14;54.41
63819;BME280;49970;54.976;73.248;2023-04-09T08:19:16;101425.72;;;7.10;54.92
63819;BME280;49970;54.976;73.248;2023-04-09T08:21:48;101432.88;;;7.06;54.54
63819;BME280;49970;54.976;73.248;2023-04-09T08:24:15;101426.06;;;7.01;54.10
63819;BME280;49970;54.976;73.248;2023-04-09T08:26:46;101424.41;;;6.98;54.84
63819;BME280;49970;54.976;73.248;2023-04-09T08:29:13;101430.06;;;7.11;55.18
63819;BME280;49970;54.976;73.248;2023-04-09T08:31:40;101419.97;;;7.22;55.27
63819;BME280;49970;54.976;73.248;2023-04-09T08:34:17;101426.91;;;7.24;54.86
63819;BME280;49970;54.976;73.248;2023-04-09T08:36:45;101420.88;;;7.21;55.12
63819;BME280;49970;54.976;73.248;2023-04-09T08:39:12;101415.34;;;7.27;55.73
63819;BME280;49970;54.976;73.248;2023-04-09T08:41:45;101419.44;;;7.36;56.19
63819;BME280;49970;54.976;73.248;2023-04-09T08:44:25;101411.16;;;7.45;56.70
63819;BME280;49970;54.976;73.248;2023-04-09T08:46:51;101413.34;;;7.56;56.91
63819;BME280;49970;54.976;73.248;2023-04-09T08:49:19;101410.19;;;7.68;57.52
63819;BME280;49970;54.976;73.248;2023-04-09T08:51:47;101408.06;;;7.78;57.81
63819;BME280;49970;54.976;73.248;2023-04-09T08:54:15;101410.50;;;7.82;56.49
63819;BME280;49970;54.976;73.248;2023-04-09T08:56:49;101407.25;;;7.76;56.97
63819;BME280;49970;54.976;73.248;2023-04-09T08:59:16;101400.84;;;7.81;56.49
63819;BME280;49970;54.976;73.248;2023-04-09T09:01:45;101399.75;;;7.87;56.64
63819;BME280;49970;54.976;73.248;2023-04-09T09:04:14;101393.41;;;7.91;56.63
63819;BME280;49970;54.976;73.248;2023-04-09T09:06:40;101403.81;;;7.94;56.89
63819;BME280;49970;54.976;73.248;2023-04-09T09:09:14;101400.19;;;7.96;56.95
63819;BME280;49970;54.976;73.248;2023-04-09T09:11:44;101404.75;;;7.93;57.45
63819;BME280;49970;54.976;73.248;2023-04-09T09:14:12;101400.19;;;7.96;57.39
63819;BME280;49970;54.976;73.248;2023-04-09T09:21:57;101395.66;;;8.00;57.29
63819;BME280;49970;54.976;73.248;2023-04-09T09:24:23;101394.59;;;8.04;57.50
63819;BME280;49970;54.976;73.248;2023-04-09T09:26:53;101401.50;;;8.07;56.96
63819;BME280;49970;54.976;73.248;2023-04-09T09:29:20;101390.09;;;8.06;57.08
63819;BME280;49970;54.976;73.248;2023-04-09T09:31:50;101398.69;;;8.11;57.22
63819;BME280;49970;54.976;73.248;2023-04-09T09:34:18;101396.84;;;8.13;56.55
63819;BME280;49970;54.976;73.248;2023-04-09T09:36:45;101387.25;;;8.11;56.37
63819;BME280;49970;54.976;73.248;2023-04-09T09:39:12;101382.91;;;8.10;56.23
63819;BME280;49970;54.976;73.248;2023-04-09T09:41:39;101382.34;;;8.03;56.65
63819;BME280;49970;54.976;73.248;2023-04-09T09:44:08;101390.06;;;8.08;56.16
63819;BME280;49970;54.976;73.248;2023-04-09T09:46:39;101378.78;;;8.04;56.20
63819;BME280;49970;54.976;73.248;2023-04-09T09:49:06;101385.84;;;8.04;55.80
63819;BME280;49970;54.976;73.248;2023-04-09T09:51:39;101384.81;;;8.06;56.41
63819;BME280;49970;54.976;73.248;2023-04-09T09:54:07;101380.59;;;8.02;57.00
63819;BME280;49970;54.976;73.248;2023-04-09T09:56:37;101372.69;;;8.02;56.47
63819;BME280;49970;54.976;73.248;2023-04-09T09:59:31;101375.28;;;8.04;55.83
63819;BME280;49970;54.976;73.248;2023-04-09T10:02:03;101372.69;;;8.02;56.22
63819;BME280;49970;54.976;73.248;2023-04-09T10:04:36;101368.47;;;7.98;57.04
63819;BME280;49970;54.976;73.248;2023-04-09T10:07:06;101370.94;;;8.03;56.87
63819;BME280;49970;54.976;73.248;2023-04-09T10:09:34;101364.84;;;8.01;56.71
63819;BME280;49970;54.976;73.248;2023-04-09T10:12:03;101360.63;;;7.96;56.51
63819;BME280;49970;54.976;73.248;2023-04-09T10:14:33;101365.69;;;8.01;56.40
63819;BME280;49970;54.976;73.248;2023-04-09T10:17:01;101359.66;;;7.99;56.11
63819;BME280;49970;54.976;73.248;2023-04-09T10:19:34;101365.78;;;7.99;56.65
63819;BME280;49970;54.976;73.248;2023-04-09T10:22:08;101361.56;;;7.95;56.61
63819;BME280;49970;54.976;73.248;2023-04-09T10:24:35;101353.66;;;7.95;56.06
63819;BME280;49970;54.976;73.248;2023-04-09T10:27:12;101353.78;;;7.92;56.58
63819;BME280;49970;54.976;73.248;2023-04-09T10:29:46;101355.47;;;7.93;56.21
63819;BME280;49970;54.976;73.248;2023-04-09T10:32:23;101354.56;;;7.94;55.59
63819;BME280;49970;54.976;73.248;2023-04-09T10:34:57;101354.69;;;7.91;56.04
63819;BME280;49970;54.976;73.248;2023-04-09T10:37:34;101356.59;;;7.88;56.07
63819;BME280;49970;54.976;73.248;2023-04-09T10:40:02;101350.47;;;7.87;56.07
63819;BME280;49970;54.976;73.248;2023-04-09T10:42:31;101347.84;;;7.87;56.39
63819;BME280;49970;54.976;73.248;2023-04-09T10:45:11;101349.47;;;7.90;56.35
63819;BME280;49970;54.976;73.248;2023-04-09T10:47:41;101352.19;;;7.88;56.37
63819;BME280;49970;54.976;73.248;2023-04-09T10:52:42;101347.84;;;7.87;56.12
63819;BME280;49970;54.976;73.248;2023-04-09T10:55:19;101351.63;;;7.82;56.31
63819;BME280;49970;54.976;73.248;2023-04-09T10:57:59;101333.94;;;7.84;55.97
63819;BME280;49970;54.976;73.248;2023-04-09T11:00:26;101338.28;;;7.85;55.79
63819;BME280;49970;54.976;73.248;2023-04-09T11:03:25;101335.72;;;7.83;55.51
63819;BME280;49970;54.976;73.248;2023-04-09T11:06:01;101328.19;;;7.74;56.86
63819;BME280;49970;54.976;73.248;2023-04-09T11:08:31;101327.28;;;7.75;57.03
63819;BME280;49970;54.976;73.248;2023-04-09T11:10:59;101326.28;;;7.78;56.63
63819;BME280;49970;54.976;73.248;2023-04-09T11:13:27;101317.50;;;7.77;56.52
63819;BME280;49970;54.976;73.248;2023-04-09T11:15:58;101320.13;;;7.77;56.53
63819;BME280;49970;54.976;73.248;2023-04-09T11:18:27;101320.34;;;7.72;56.51
63819;BME280;49970;54.976;73.248;2023-04-09T11:20:58;101320.34;;;7.72;56.96
63819;BME280;49970;54.976;73.248;2023-04-09T11:23:25;101316.00;;;7.71;55.91
63819;BME280;49970;54.976;73.248;2023-04-09T11:25:52;101313.28;;;7.73;56.13
63819;BME280;49970;54.976;73.248;2023-04-09T11:28:19;101311.56;;;7.72;56.12
63819;BME280;49970;54.976;73.248;2023-04-09T11:30:51;101315.22;;;7.69;56.20
63819;BME280;49970;54.976;73.248;2023-04-09T11:33:18;101301.22;;;7.67;56.65
63819;BME280;49970;54.976;73.248;2023-04-09T11:35:44;101302.16;;;7.66;56.33
63819;BME280;49970;54.976;73.248;2023-04-09T11:38:11;101296.03;;;7.66;56.38
63819;BME280;49970;54.976;73.248;2023-04-09T11:40:40;101300.38;;;7.67;56.47
63819;BME280;49970;54.976;73.248;2023-04-09T11:43:20;101300.38;;;7.67;56.58
63819;BME280;49970;54.976;73.248;2023-04-09T11:45:46;101294.13;;;7.69;56.18
63819;BME280;49970;54.976;73.248;2023-04-09T11:48:13;101295.88;;;7.69;56.52
63819;BME280;49970;54.976;73.248;2023-04-09T11:50:40;101294.16;;;7.68;56.62
63819;BME280;49970;54.976;73.248;2023-04-09T11:53:22;101291.59;;;7.66;56.45
63819;BME280;49970;54.976;73.248;2023-04-09T11:55:50;101282.13;;;7.62;56.25
63819;BME280;49970;54.976;73.248;2023-04-09T11:58:22;101282.19;;;7.61;56.57
63819;BME280;49970;54.976;73.248;2023-04-09T12:00:57;101269.25;;;7.55;56.97
63819;BME280;49970;54.976;73.248;2023-04-09T12:03:28;101273.69;;;7.54;56.94
63819;BME280;49970;54.976;73.248;2023-04-09T12:05:55;101271.91;;;7.55;57.02
63819;BME280;49970;54.976;73.248;2023-04-09T12:08:22;101276.31;;;7.54;57.09
63819;BME280;49970;54.976;73.248;2023-04-09T12:10:50;101259.13;;;7.45;57.51
63819;BME280;49970;54.976;73.248;2023-04-09T12:13:19;101265.91;;;7.51;57.56
63819;BME280;49970;54.976;73.248;2023-04-09T12:15:48;101260.69;;;7.49;57.43
63819;BME280;49970;54.976;73.248;2023-04-09T12:18:14;101246.72;;;7.47;57.48
63819;BME280;49970;54.976;73.248;2023-04-09T12:20:42;101258.31;;;7.43;57.15
63819;BME280;49970;54.976;73.248;2023-04-09T12:23:10;101252.34;;;7.40;57.92
63819;BME280;49970;54.976;73.248;2023-04-09T12:25:39;101253.97;;;7.42;57.90
63819;BME280;49970;54.976;73.248;2023-04-09T12:28:06;101249.63;;;7.41;57.79
63819;BME280;49970;54.976;73.248;2023-04-09T12:30:34;101251.41;;;7.41;57.65
63819;BME280;49970;54.976;73.248;2023-04-09T12:33:01;101250.56;;;7.40;58.12
63819;BME280;49970;54.976;73.248;2023-04-09T12:35:29;101246.38;;;7.35;58.22
63819;BME280;49970;54.976;73.248;2023-04-09T12:38:00;101245.66;;;7.31;58.09
63819;BME280;49970;54.976;73.248;2023-04-09T12:40:26;101236.03;;;7.30;58.26
63819;BME280;49970;54.976;73.248;2023-04-09T12:42:52;101235.19;;;7.30;58.42
63819;BME280;49970;54.976;73.248;2023-04-09T12:45:19;101234.34;;;7.29;57.73
63819;BME280;49970;54.976;73.248;2023-04-09T12:48:02;101229.13;;;7.28;58.15
63819;BME280;49970;54.976;73.248;2023-04-09T12:50:51;101225.69;;;7.26;58.28
63819;BME280;49970;54.976;73.248;2023-04-09T12:53:48;101224.03;;;7.23;58.54
63819;BME280;49970;54.976;73.248;2023-04-09T12:56:14;101220.56;;;7.22;58.54
63819;BME280;49970;54.976;73.248;2023-04-09T12:59:01;101221.56;;;7.20;58.58
63819;BME280;49970;54.976;73.248;2023-04-09T13:01:38;101213.00;;;7.15;58.43
63819;BME280;49970;54.976;73.248;2023-04-09T13:04:04;101212.19;;;7.13;58.55
63819;BME280;49970;54.976;73.248;2023-04-09T13:06:31;101216.72;;;7.09;58.92
63819;BME280;49970;54.976;73.248;2023-04-09T13:09:17;101205.53;;;7.04;58.73
63819;BME280;49970;54.976;73.248;2023-04-09T13:12:13;101203.88;;;7.02;58.74
63819;BME280;49970;54.976;73.248;2023-04-09T13:14:42;101207.38;;;7.02;59.04
63819;BME280;49970;54.976;73.248;2023-04-09T13:17:39;101203.94;;;7.00;59.40
63819;BME280;49970;54.976;73.248;2023-04-09T13:20:07;101197.94;;;6.96;59.33
63819;BME280;49970;54.976;73.248;2023-04-09T13:22:43;101198.88;;;6.95;59.60
63819;BME280;49970;54.976;73.248;2023-04-09T13:25:19;101191.91;;;6.94;59.61
63819;BME280;49970;54.976;73.248;2023-04-09T13:27:56;101199.00;;;6.92;59.85
63819;BME280;49970;54.976;73.248;2023-04-09T13:30:42;101199.06;;;6.91;59.89
63819;BME280;49970;54.976;73.248;2023-04-09T13:33:29;101194.78;;;6.88;60.08
63819;BME280;49970;54.976;73.248;2023-04-09T13:36:05;101196.63;;;6.86;60.27
63819;BME280;49970;54.976;73.248;2023-04-09T13:38:32;101194.19;;;6.82;60.30
63819;BME280;49970;54.976;73.248;2023-04-09T13:41:16;101193.50;;;6.77;60.84